createdAt,value
2018-08-23T00:01:56.179Z,20.80
2018-08-23T00:04:30.752Z,20.90
2018-08-23T00:07:01.478Z,20.90
2018-08-23T00:09:34.253Z,20.80
2018-08-23T00:12:09.850Z,20.80
2018-08-23T00:14:38.946Z,20.90
2018-08-23T00:19:48.486Z,20.80
2018-08-23T00:22:22.906Z,20.50
2018-08-23T00:24:52.026Z,20.70
2018-08-23T00:27:26.398Z,20.90
2018-08-23T00:29:55.550Z,20.80
2018-08-23T00:32:24.679Z,20.90
2018-08-23T00:34:54.347Z,20.90
2018-08-23T00:37:23.471Z,20.90
2018-08-23T00:39:52.699Z,20.90
2018-08-23T00:42:22.270Z,20.90
2018-08-23T00:44:59.268Z,20.70
2018-08-23T00:47:33.574Z,20.80
2018-08-23T00:50:02.695Z,20.70
2018-08-23T00:52:41.117Z,20.80
2018-08-23T00:55:18.522Z,20.90
2018-08-23T00:57:47.822Z,21.00
2018-08-23T01:00:18.095Z,20.80
2018-08-23T01:02:49.262Z,20.60
2018-08-23T01:05:23.650Z,20.80
2018-08-23T01:07:52.999Z,20.70
2018-08-23T01:10:22.097Z,20.70
2018-08-23T01:12:54.862Z,20.70
2018-08-23T01:15:23.914Z,20.50
2018-08-23T01:18:07.342Z,20.70
2018-08-23T01:20:36.754Z,20.70
2018-08-23T01:23:05.893Z,20.80
2018-08-23T01:25:38.337Z,20.70
2018-08-23T01:28:07.861Z,20.70
2018-08-23T01:30:37.525Z,20.80
2018-08-23T01:33:09.987Z,20.70
2018-08-23T01:35:41.549Z,20.80
2018-08-23T01:38:11.190Z,20.80
2018-08-23T01:40:40.362Z,20.40
2018-08-23T01:43:09.572Z,20.30
2018-08-23T01:45:38.736Z,20.50
2018-08-23T01:48:09.191Z,20.60
2018-08-23T01:50:38.355Z,20.70
2018-08-23T01:53:07.525Z,20.70
2018-08-23T01:55:36.736Z,20.60
2018-08-23T01:58:06.121Z,20.50
2018-08-23T02:00:36.180Z,20.60
2018-08-23T02:03:05.589Z,20.70
2018-08-23T02:05:37.862Z,20.70
2018-08-23T02:08:07.478Z,20.80
2018-08-23T02:10:37.201Z,20.70
2018-08-23T02:13:15.118Z,20.70
2018-08-23T02:15:49.579Z,20.80
2018-08-23T02:18:18.974Z,20.80
2018-08-23T02:20:50.463Z,20.80
2018-08-23T02:23:19.653Z,20.80
2018-08-23T02:25:49.217Z,20.70
2018-08-23T02:28:18.359Z,20.70
2018-08-23T02:30:52.162Z,20.70
2018-08-23T02:33:21.338Z,20.70
2018-08-23T02:35:58.946Z,20.70
2018-08-23T02:38:29.313Z,20.70
2018-08-23T02:41:00.159Z,20.40
2018-08-23T02:43:29.279Z,20.60
2018-08-23T02:45:58.458Z,20.50
2018-08-23T02:48:27.562Z,20.50
2018-08-23T02:50:56.634Z,20.40
2018-08-23T02:53:35.153Z,20.50
2018-08-23T02:56:05.473Z,20.70
2018-08-23T02:59:11.908Z,20.70
2018-08-23T03:01:41.614Z,20.90
2018-08-23T03:04:13.307Z,21.20
2018-08-23T03:07:12.967Z,21.30
2018-08-23T03:09:44.930Z,21.30
2018-08-23T03:12:20.025Z,21.50
2018-08-23T03:14:49.364Z,21.60
2018-08-23T03:17:27.496Z,21.70
2018-08-23T03:20:10.725Z,21.70
2018-08-23T03:22:40.372Z,21.80
2018-08-23T03:25:11.878Z,21.70
2018-08-23T03:27:40.990Z,21.60
2018-08-23T03:30:11.790Z,21.50
2018-08-23T03:32:40.946Z,21.40
2018-08-23T03:35:10.287Z,21.10
2018-08-23T03:37:39.426Z,20.90
2018-08-23T03:40:09.807Z,21.10
2018-08-23T03:42:38.956Z,21.20
2018-08-23T03:45:13.311Z,21.10
2018-08-23T03:47:47.891Z,21.10
2018-08-23T03:50:17.058Z,21.10
2018-08-23T03:52:49.173Z,21.00
2018-08-23T03:55:19.507Z,21.00
2018-08-23T03:57:53.854Z,20.90
2018-08-23T04:00:28.318Z,20.90
2018-08-23T04:02:59.744Z,20.70
2018-08-23T04:05:28.899Z,20.80
2018-08-23T04:07:58.010Z,20.70
2018-08-23T04:10:27.128Z,20.40
2018-08-23T04:12:56.238Z,20.50
2018-08-23T04:15:31.420Z,20.60
2018-08-23T04:18:04.279Z,20.60
2018-08-23T04:20:33.400Z,20.60
2018-08-23T04:23:02.553Z,20.70
2018-08-23T04:25:31.709Z,20.60
2018-08-23T04:28:00.806Z,20.60
2018-08-23T04:30:29.980Z,20.70
2018-08-23T04:32:59.117Z,20.60
2018-08-23T04:35:29.283Z,20.60
2018-08-23T04:37:58.387Z,20.60
2018-08-23T04:40:27.531Z,20.50
2018-08-23T04:42:56.666Z,20.50
2018-08-23T04:45:28.099Z,20.40
2018-08-23T04:48:04.694Z,20.40
2018-08-23T04:50:34.102Z,20.50
2018-08-23T04:53:03.295Z,20.50
2018-08-23T04:55:32.402Z,20.60
2018-08-23T04:58:02.316Z,20.70
2018-08-23T05:00:31.763Z,20.40
2018-08-23T05:03:00.955Z,20.30
2018-08-23T05:05:30.074Z,20.50
2018-08-23T05:07:59.215Z,20.60
2018-08-23T05:10:28.454Z,20.70
2018-08-23T05:12:57.573Z,20.70
2018-08-23T05:15:27.403Z,20.70
2018-08-23T05:17:56.531Z,20.70
2018-08-23T05:20:25.680Z,20.80
2018-08-23T05:23:02.110Z,20.80
2018-08-23T05:25:31.246Z,20.70
2018-08-23T05:28:09.142Z,20.70
2018-08-23T05:30:38.290Z,20.80
2018-08-23T05:33:16.840Z,20.90
2018-08-23T05:35:46.436Z,20.80
2018-08-23T05:38:16.171Z,20.90
2018-08-23T05:40:51.796Z,21.00
2018-08-23T05:43:21.519Z,21.30
2018-08-23T05:45:55.246Z,21.30
2018-08-23T05:48:31.838Z,21.30
2018-08-23T05:51:04.145Z,21.50
2018-08-23T05:53:33.387Z,21.50
2018-08-23T05:56:02.735Z,21.30
2018-08-23T05:58:32.879Z,21.20
2018-08-23T06:01:02.579Z,21.10
2018-08-23T06:03:33.523Z,21.20
2018-08-23T06:06:02.767Z,21.40
2018-08-23T06:08:31.880Z,21.60
2018-08-23T06:11:11.137Z,21.60
2018-08-23T06:13:41.041Z,21.20
2018-08-23T06:16:10.774Z,21.20
2018-08-23T06:18:40.718Z,21.40
2018-08-23T06:21:09.754Z,21.80
2018-08-23T06:23:57.822Z,22.00
2018-08-23T06:26:40.334Z,22.00
2018-08-23T06:29:11.735Z,22.00
2018-08-23T06:32:06.902Z,22.00
2018-08-23T06:34:37.862Z,22.10
2018-08-23T06:37:07.308Z,22.20
2018-08-23T06:39:36.394Z,22.30
2018-08-23T06:42:05.471Z,22.40
2018-08-23T06:44:40.852Z,22.50
2018-08-23T06:47:11.659Z,22.40
2018-08-23T06:49:41.726Z,22.60
2018-08-23T06:52:16.770Z,22.70
2018-08-23T06:54:46.402Z,22.70
2018-08-23T06:57:15.640Z,23.10
2018-08-23T06:59:44.747Z,23.20
2018-08-23T07:02:14.101Z,23.40
2018-08-23T07:04:43.651Z,23.30
2018-08-23T07:07:17.767Z,23.30
2018-08-23T07:09:46.839Z,23.40
2018-08-23T07:12:20.127Z,23.70
2018-08-23T07:14:51.266Z,24.10
2018-08-23T07:17:26.727Z,24.40
2018-08-23T07:20:00.064Z,24.30
2018-08-23T07:22:29.199Z,24.30
2018-08-23T07:24:58.802Z,24.40
2018-08-23T07:27:27.879Z,24.60
2018-08-23T07:29:58.246Z,24.60
2018-08-23T07:32:30.365Z,24.60
2018-08-23T07:35:05.342Z,24.60
2018-08-23T07:37:35.625Z,24.70
2018-08-23T07:40:10.230Z,24.80
2018-08-23T07:42:40.376Z,24.60
2018-08-23T07:45:09.922Z,24.70
2018-08-23T07:47:42.326Z,24.90
2018-08-23T07:50:11.406Z,25.20
2018-08-23T07:52:42.308Z,25.30
2018-08-23T07:55:11.471Z,25.40
2018-08-23T07:57:41.111Z,25.60
2018-08-23T08:00:24.362Z,25.80
2018-08-23T08:02:53.504Z,26.10
2018-08-23T08:05:24.483Z,26.40
2018-08-23T08:07:53.559Z,26.60
2018-08-23T08:10:22.630Z,26.70
2018-08-23T08:12:52.548Z,26.60
2018-08-23T08:15:22.069Z,26.40
2018-08-23T08:17:50.900Z,26.60
2018-08-23T08:20:19.998Z,26.70
2018-08-23T08:22:49.067Z,26.80
2018-08-23T08:25:19.089Z,26.90
2018-08-23T08:27:49.572Z,27.10
2018-08-23T08:30:24.859Z,27.20
2018-08-23T08:32:54.011Z,27.30
2018-08-23T08:35:23.243Z,27.10
2018-08-23T08:37:52.453Z,27.50
2018-08-23T08:40:24.778Z,27.30
2018-08-23T08:42:53.938Z,27.60
2018-08-23T08:45:26.527Z,27.70
2018-08-23T08:48:05.922Z,27.60
2018-08-23T08:50:39.250Z,27.60
2018-08-23T08:53:08.629Z,27.70
2018-08-23T08:55:37.849Z,27.90
2018-08-23T08:58:08.993Z,27.80
2018-08-23T09:00:50.470Z,27.60
2018-08-23T09:03:20.532Z,27.40
2018-08-23T09:05:49.630Z,27.30
2018-08-23T09:08:18.908Z,27.10
2018-08-23T09:10:48.047Z,27.30
2018-08-23T09:13:17.281Z,27.40
2018-08-23T09:15:49.337Z,27.60
2018-08-23T09:18:23.191Z,28.00
2018-08-23T09:20:56.315Z,28.20
2018-08-23T09:23:26.073Z,28.20
2018-08-23T09:25:57.794Z,28.20
2018-08-23T09:28:27.203Z,28.80
2018-08-23T09:30:56.306Z,29.20
2018-08-23T09:33:27.466Z,29.60
2018-08-23T09:35:56.895Z,29.60
2018-08-23T09:38:25.971Z,29.70
2018-08-23T09:40:55.028Z,29.90
2018-08-23T09:43:24.132Z,29.70
2018-08-23T09:45:54.115Z,29.90
2018-08-23T09:48:23.338Z,29.90
2018-08-23T09:50:52.520Z,29.70
2018-08-23T09:53:23.560Z,30.20
2018-08-23T09:55:53.462Z,30.40
2018-08-23T09:58:28.100Z,30.40
2018-08-23T10:01:02.493Z,30.20
2018-08-23T10:03:36.845Z,29.90
2018-08-23T10:06:11.402Z,30.40
2018-08-23T10:08:45.887Z,30.70
2018-08-23T10:11:20.918Z,30.70
2018-08-23T10:13:55.379Z,30.70
2018-08-23T10:16:29.924Z,30.70
2018-08-23T10:19:01.053Z,30.70
2018-08-23T10:21:35.398Z,30.70
2018-08-23T10:24:16.366Z,31.10
2018-08-23T10:26:45.830Z,31.70
2018-08-23T10:29:14.930Z,31.40
2018-08-23T10:31:44.183Z,30.90
2018-08-23T10:34:13.369Z,30.80
2018-08-23T10:36:42.512Z,31.20
2018-08-23T10:39:13.115Z,31.20
2018-08-23T10:41:42.230Z,30.90
2018-08-23T10:44:11.371Z,31.40
2018-08-23T10:46:45.996Z,31.80
2018-08-23T10:49:15.131Z,31.50
2018-08-23T10:51:44.227Z,31.80
2018-08-23T10:54:13.390Z,32.20
2018-08-23T10:56:42.567Z,32.40
2018-08-23T10:59:12.002Z,32.40
2018-08-23T11:01:41.018Z,32.30
2018-08-23T11:04:10.911Z,32.00
2018-08-23T11:06:45.338Z,31.80
2018-08-23T11:09:19.793Z,31.20
2018-08-23T11:11:49.157Z,30.90
2018-08-23T11:14:23.826Z,30.80
2018-08-23T11:16:58.418Z,30.80
2018-08-23T11:19:32.911Z,31.70
2018-08-23T11:22:02.048Z,31.70
2018-08-23T11:24:31.259Z,31.80
2018-08-23T11:27:00.403Z,31.90
2018-08-23T11:29:29.608Z,32.10
2018-08-23T11:34:34.019Z,32.20
2018-08-23T11:37:03.122Z,32.20
2018-08-23T11:39:32.233Z,31.90
2018-08-23T11:42:01.302Z,32.20
2018-08-23T11:44:30.509Z,32.70
2018-08-23T11:46:59.600Z,32.20
2018-08-23T11:49:28.716Z,32.70
2018-08-23T11:51:57.782Z,32.70
2018-08-23T11:54:26.882Z,32.90
2018-08-23T11:56:56.116Z,32.80
2018-08-23T11:59:25.180Z,32.70
2018-08-23T12:01:54.259Z,33.20
2018-08-23T12:04:23.342Z,32.90
2018-08-23T12:06:56.347Z,32.80
2018-08-23T12:09:31.736Z,32.60
2018-08-23T12:12:02.016Z,33.10
2018-08-23T12:14:31.178Z,33.00
2018-08-23T12:17:00.538Z,33.40
2018-08-23T12:19:29.645Z,33.40
2018-08-23T12:21:58.792Z,33.50
2018-08-23T12:24:27.928Z,33.80
2018-08-23T12:26:57.051Z,33.90
2018-08-23T12:29:26.171Z,33.80
2018-08-23T12:31:56.201Z,33.70
2018-08-23T12:34:33.258Z,33.50
2018-08-23T12:37:07.795Z,33.70
2018-08-23T12:39:42.320Z,33.90
2018-08-23T12:42:17.600Z,33.80
2018-08-23T12:44:53.210Z,33.90
2018-08-23T12:47:23.570Z,33.90
2018-08-23T12:49:57.667Z,34.30
2018-08-23T12:52:26.834Z,34.30
2018-08-23T12:54:55.890Z,33.80
2018-08-23T12:57:25.326Z,33.80
2018-08-23T12:59:55.474Z,34.00
2018-08-23T13:02:25.773Z,34.10
2018-08-23T13:04:54.869Z,34.30
2018-08-23T13:07:25.223Z,34.20
2018-08-23T13:09:54.911Z,34.00
2018-08-23T13:12:24.914Z,34.40
2018-08-23T13:14:54.370Z,34.50
2018-08-23T13:17:24.454Z,34.90
2018-08-23T13:19:54.796Z,34.80
2018-08-23T13:22:30.812Z,34.30
2018-08-23T13:25:06.214Z,34.30
2018-08-23T13:27:36.990Z,34.90
2018-08-23T13:30:06.411Z,34.70
2018-08-23T13:32:35.555Z,34.50
2018-08-23T13:35:04.983Z,34.60
2018-08-23T13:37:35.978Z,34.40
2018-08-23T13:40:11.572Z,33.90
2018-08-23T13:42:40.948Z,33.50
2018-08-23T13:45:10.034Z,32.90
2018-08-23T13:47:41.513Z,32.00
2018-08-23T13:50:11.408Z,31.90
2018-08-23T13:52:40.816Z,31.60
2018-08-23T13:55:09.939Z,31.50
2018-08-23T13:57:39.303Z,31.50
2018-08-23T14:00:13.488Z,30.80
2018-08-23T14:02:42.770Z,30.30
2018-08-23T14:05:12.318Z,30.40
2018-08-23T14:07:41.917Z,30.50
2018-08-23T14:10:13.805Z,30.30
2018-08-23T14:12:45.848Z,30.00
2018-08-23T14:15:20.600Z,29.50
2018-08-23T14:17:49.945Z,29.10
2018-08-23T14:20:19.106Z,28.00
2018-08-23T14:22:48.921Z,28.30
2018-08-23T14:25:18.873Z,28.30
2018-08-23T14:27:48.147Z,28.00
2018-08-23T14:30:17.688Z,27.80
2018-08-23T14:32:47.146Z,27.50
2018-08-23T14:35:16.602Z,27.10
2018-08-23T14:37:45.706Z,27.10
2018-08-23T14:40:14.855Z,27.10
2018-08-23T14:42:44.191Z,27.00
2018-08-23T14:45:17.442Z,27.20
2018-08-23T14:47:51.805Z,27.40
2018-08-23T14:50:21.524Z,26.90
2018-08-23T14:52:50.638Z,26.90
2018-08-23T14:55:25.089Z,27.10
2018-08-23T14:57:54.191Z,27.10
2018-08-23T15:00:23.289Z,27.00
2018-08-23T15:02:52.656Z,26.90
2018-08-23T15:05:22.239Z,27.00
2018-08-23T15:07:51.935Z,26.60
2018-08-23T15:10:21.447Z,26.60
2018-08-23T15:12:51.284Z,26.70
2018-08-23T15:15:26.461Z,26.90
2018-08-23T15:17:56.008Z,26.90
2018-08-23T15:20:25.091Z,26.90
2018-08-23T15:22:55.078Z,26.70
2018-08-23T15:25:24.161Z,26.50
2018-08-23T15:27:53.278Z,25.60
2018-08-23T15:30:22.538Z,24.70
2018-08-23T15:32:51.636Z,23.90
2018-08-23T15:35:20.738Z,23.90
2018-08-23T15:37:50.258Z,23.80
2018-08-23T15:40:19.349Z,23.20
2018-08-23T15:42:49.274Z,22.40
2018-08-23T15:45:19.245Z,22.30
2018-08-23T15:47:49.294Z,22.10
2018-08-23T15:50:18.411Z,22.60
2018-08-23T15:52:47.709Z,23.00
2018-08-23T15:55:16.941Z,22.90
2018-08-23T15:57:45.890Z,22.60
2018-08-23T16:00:15.046Z,22.60
2018-08-23T16:02:44.124Z,22.60
2018-08-23T16:05:13.202Z,22.60
2018-08-23T16:07:42.295Z,22.40
2018-08-23T16:10:11.620Z,22.20
2018-08-23T16:12:41.834Z,22.20
2018-08-23T16:15:16.337Z,21.90
2018-08-23T16:17:50.840Z,21.90
2018-08-23T16:20:25.290Z,21.90
2018-08-23T16:22:54.480Z,21.90
2018-08-23T16:25:24.439Z,21.60
2018-08-23T16:27:53.637Z,21.90
2018-08-23T16:30:22.775Z,21.80
2018-08-23T16:32:51.958Z,21.70
2018-08-23T16:35:21.022Z,21.70
2018-08-23T16:37:50.353Z,21.80
2018-08-23T16:40:24.807Z,21.80
2018-08-23T16:42:53.909Z,22.00
2018-08-23T16:45:23.060Z,21.80
2018-08-23T16:47:52.767Z,21.40
2018-08-23T16:50:22.055Z,21.60
2018-08-23T16:52:51.647Z,21.50
2018-08-23T16:55:20.731Z,21.50
2018-08-23T16:57:49.803Z,21.40
2018-08-23T17:00:18.918Z,21.00
2018-08-23T17:02:47.993Z,21.20
2018-08-23T17:05:17.091Z,21.30
2018-08-23T17:07:46.352Z,21.20
2018-08-23T17:10:15.459Z,21.40
2018-08-23T17:12:44.597Z,21.60
2018-08-23T17:15:14.604Z,21.40
2018-08-23T17:17:49.196Z,21.60
2018-08-23T17:20:18.260Z,21.60
2018-08-23T17:22:47.457Z,21.60
2018-08-23T17:25:16.640Z,21.60
2018-08-23T17:27:45.768Z,21.70
2018-08-23T17:30:14.883Z,21.70
2018-08-23T17:32:43.986Z,21.60
2018-08-23T17:35:13.108Z,21.60
2018-08-23T17:37:42.210Z,21.50
2018-08-23T17:40:11.321Z,21.40
2018-08-23T17:42:44.516Z,21.50
2018-08-23T17:45:14.839Z,21.70
2018-08-23T17:47:43.915Z,21.50
2018-08-23T17:50:12.999Z,21.50
2018-08-23T17:52:42.099Z,21.40
2018-08-23T17:55:11.199Z,21.40
2018-08-23T17:57:40.367Z,21.60
2018-08-23T18:00:09.519Z,21.50
2018-08-23T18:02:38.663Z,21.50
2018-08-23T18:05:07.730Z,21.50
2018-08-23T18:07:37.227Z,21.50
2018-08-23T18:10:06.323Z,21.40
2018-08-23T18:12:35.430Z,21.40
2018-08-23T18:15:08.170Z,21.30
2018-08-23T18:17:38.203Z,21.20
2018-08-23T18:20:07.582Z,21.20
2018-08-23T18:22:36.976Z,21.30
2018-08-23T18:25:06.142Z,21.20
2018-08-23T18:27:36.091Z,21.20
2018-08-23T18:30:05.335Z,21.00
2018-08-23T18:32:34.578Z,21.20
2018-08-23T18:35:03.586Z,21.20
2018-08-23T18:37:32.962Z,21.10
2018-08-23T18:40:02.060Z,21.00
2018-08-23T18:42:31.146Z,21.00
2018-08-23T18:45:00.273Z,21.00
2018-08-23T18:47:29.515Z,20.90
2018-08-23T18:49:58.577Z,20.70
2018-08-23T18:52:27.710Z,20.90
2018-08-23T18:54:57.749Z,20.90
2018-08-23T18:57:26.905Z,20.90
2018-08-23T18:59:56.031Z,21.00
2018-08-23T19:02:25.270Z,21.00
2018-08-23T19:04:54.422Z,20.90
2018-08-23T19:07:28.851Z,20.80
2018-08-23T19:09:58.717Z,20.70
2018-08-23T19:12:28.377Z,20.80
2018-08-23T19:14:57.757Z,20.70
2018-08-23T19:17:32.074Z,20.60
2018-08-23T19:20:01.251Z,20.40
2018-08-23T19:22:30.358Z,20.30
2018-08-23T19:25:00.049Z,20.50
2018-08-23T19:27:29.400Z,20.40
2018-08-23T19:29:58.492Z,20.40
2018-08-23T19:32:27.687Z,20.40
2018-08-23T19:34:56.795Z,20.40
2018-08-23T19:37:26.795Z,20.30
2018-08-23T19:39:56.010Z,20.30
2018-08-23T19:42:25.253Z,20.20
2018-08-23T19:44:56.381Z,20.10
2018-08-23T19:47:30.992Z,20.00
2018-08-23T19:50:02.174Z,20.00
2018-08-23T19:52:31.332Z,20.00
2018-08-23T19:55:00.475Z,19.90
2018-08-23T19:57:29.628Z,19.90
2018-08-23T19:59:59.231Z,19.90
2018-08-23T20:02:28.388Z,19.90
2018-08-23T20:04:57.558Z,20.00
2018-08-23T20:07:26.723Z,19.90
2018-08-23T20:09:56.451Z,19.80
2018-08-23T20:12:25.631Z,19.90
2018-08-23T20:14:55.395Z,19.80
2018-08-23T20:17:25.250Z,19.90
2018-08-23T20:19:54.719Z,20.00
2018-08-23T20:22:23.891Z,19.80
2018-08-23T20:24:53.087Z,19.90
2018-08-23T20:27:22.323Z,19.90
2018-08-23T20:29:51.529Z,19.90
2018-08-23T20:32:20.757Z,19.90
2018-08-23T20:34:49.851Z,20.00
2018-08-23T20:37:19.018Z,20.00
2018-08-23T20:39:48.368Z,19.50
2018-08-23T20:42:17.466Z,19.60
2018-08-23T20:44:51.412Z,19.70
2018-08-23T20:47:23.257Z,19.60
2018-08-23T20:49:54.827Z,19.60
2018-08-23T20:52:24.062Z,19.60
2018-08-23T20:54:54.700Z,19.60
2018-08-23T20:57:24.168Z,19.60
2018-08-23T20:59:53.395Z,19.60
2018-08-23T21:02:23.383Z,19.70
2018-08-23T21:04:55.557Z,19.60
2018-08-23T21:07:27.986Z,19.50
2018-08-23T21:09:57.534Z,19.60
2018-08-23T21:12:29.949Z,19.60
2018-08-23T21:15:01.038Z,19.30
2018-08-23T21:17:30.578Z,19.20
2018-08-23T21:20:00.317Z,19.20
2018-08-23T21:22:29.737Z,19.30
2018-08-23T21:24:58.886Z,19.20
2018-08-23T21:27:28.889Z,19.50
2018-08-23T21:29:59.798Z,19.40
2018-08-23T21:32:28.950Z,19.20
2018-08-23T21:34:59.653Z,19.30
2018-08-23T21:37:29.958Z,19.30
2018-08-23T21:39:59.324Z,19.30
2018-08-23T21:42:29.257Z,19.40
2018-08-23T21:44:58.924Z,19.40
2018-08-23T21:47:29.098Z,19.40
2018-08-23T21:49:58.411Z,19.40
2018-08-23T21:52:27.707Z,19.20
2018-08-23T21:54:57.353Z,19.20
2018-08-23T21:57:26.483Z,19.20
2018-08-23T21:59:55.635Z,19.20
2018-08-23T22:02:24.839Z,19.10
2018-08-23T22:04:56.171Z,19.40
2018-08-23T22:07:25.288Z,19.50
2018-08-23T22:09:55.310Z,19.50
2018-08-23T22:12:25.594Z,19.50
2018-08-23T22:14:55.623Z,19.40
2018-08-23T22:17:24.770Z,19.50
2018-08-23T22:19:53.927Z,19.40
2018-08-23T22:22:23.064Z,19.50
2018-08-23T22:24:52.165Z,19.50
2018-08-23T22:27:21.293Z,19.50
2018-08-23T22:29:50.416Z,19.40
2018-08-23T22:32:20.236Z,19.40
2018-08-23T22:34:49.294Z,19.50
2018-08-23T22:37:18.503Z,19.50
2018-08-23T22:39:47.871Z,19.50
2018-08-23T22:42:16.995Z,19.40
2018-08-23T22:44:46.052Z,19.30
2018-08-23T22:47:15.253Z,19.30
2018-08-23T22:49:44.392Z,19.40
2018-08-23T22:52:14.847Z,19.50
2018-08-23T22:54:43.934Z,19.50
2018-08-23T22:57:13.083Z,19.60
2018-08-23T22:59:42.222Z,19.50
2018-08-23T23:02:15.556Z,19.40
2018-08-23T23:04:45.927Z,19.40
2018-08-23T23:07:15.109Z,19.50
2018-08-23T23:09:44.815Z,19.50
2018-08-23T23:12:13.951Z,19.50
2018-08-23T23:14:43.055Z,19.50
2018-08-23T23:17:12.452Z,19.50
2018-08-23T23:19:41.574Z,19.40
2018-08-23T23:22:10.718Z,19.40
2018-08-23T23:24:45.285Z,19.30
2018-08-23T23:27:14.531Z,19.30
2018-08-23T23:29:43.634Z,19.20
2018-08-23T23:32:12.799Z,19.20
2018-08-23T23:34:42.075Z,19.20
2018-08-23T23:37:11.243Z,19.20
2018-08-23T23:39:40.352Z,19.10
2018-08-23T23:42:09.522Z,19.10
2018-08-23T23:44:38.714Z,19.10
2018-08-23T23:47:07.814Z,19.10
2018-08-23T23:49:37.545Z,19.10
2018-08-23T23:52:06.699Z,18.80
2018-08-23T23:54:35.897Z,18.90
2018-08-23T23:57:05.214Z,18.90
2018-08-23T23:59:34.305Z,18.90
